sensor_id;sensor_type;location;lat;lon;timestamp;pressure;altitude;pressure_sealevel;temperature;humidity
68075;BME280;54864;52.002;5.468;2023-02-22T00:00:11;101428.25;;;9.24;77.36
68075;BME280;54864;52.002;5.468;2023-02-22T00:01:22;101424.88;;;9.19;77.47
68075;BME280;54864;52.002;5.468;2023-02-22T00:02:34;101423.03;;;8.92;77.63
68075;BME280;54864;52.002;5.468;2023-02-22T00:03:37;101428.28;;;8.92;79.01
68075;BME280;54864;52.002;5.468;2023-02-22T00:04:38;101421.09;;;8.98;78.34
68075;BME280;54864;52.002;5.468;2023-02-22T00:05:41;101428.13;;;8.98;79.29
68075;BME280;54864;52.002;5.468;2023-02-22T00:06:44;101429.03;;;8.97;78.98
68075;BME280;54864;52.002;5.468;2023-02-22T00:07:46;101423.72;;;8.98;78.89
68075;BME280;54864;52.002;5.468;2023-02-22T00:08:47;101429.88;;;8.97;78.46
68075;BME280;54864;52.002;5.468;2023-02-22T00:09:49;101431.69;;;8.95;78.50
68075;BME280;54864;52.002;5.468;2023-02-22T00:10:50;101427.06;;;9.03;78.47
68075;BME280;54864;52.002;5.468;2023-02-22T00:11:52;101432.69;;;8.91;78.06
68075;BME280;54864;52.002;5.468;2023-02-22T00:12:54;101425.53;;;8.96;78.19
68075;BME280;54864;52.002;5.468;2023-02-22T00:13:56;101431.97;;;8.86;78.11
68075;BME280;54864;52.002;5.468;2023-02-22T00:14:58;101430.16;;;8.88;78.52
68075;BME280;54864;52.002;5.468;2023-02-22T00:16:00;101424.75;;;8.93;79.05
68075;BME280;54864;52.002;5.468;2023-02-22T00:17:01;101420.50;;;8.88;78.84
68075;BME280;54864;52.002;5.468;2023-02-22T00:18:03;101413.56;;;8.86;78.64
68075;BME280;54864;52.002;5.468;2023-02-22T00:19:04;101419.13;;;8.75;79.35
68075;BME280;54864;52.002;5.468;2023-02-22T00:20:07;101424.25;;;8.80;78.83
68075;BME280;54864;52.002;5.468;2023-02-22T00:21:11;101420.19;;;8.68;79.12
68075;BME280;54864;52.002;5.468;2023-02-22T00:22:13;101416.75;;;8.66;79.41
68075;BME280;54864;52.002;5.468;2023-02-22T00:23:20;101418.53;;;8.66;78.81
68075;BME280;54864;52.002;5.468;2023-02-22T00:24:22;101416.78;;;8.65;79.49
68075;BME280;54864;52.002;5.468;2023-02-22T00:25:24;101415.75;;;8.70;79.08
68075;BME280;54864;52.002;5.468;2023-02-22T00:26:25;101424.56;;;8.69;79.95
68075;BME280;54864;52.002;5.468;2023-02-22T00:27:27;101424.72;;;8.63;79.56
68075;BME280;54864;52.002;5.468;2023-02-22T00:28:28;101428.34;;;8.59;79.75
68075;BME280;54864;52.002;5.468;2023-02-22T00:29:30;101431.22;;;8.50;79.77
68075;BME280;54864;52.002;5.468;2023-02-22T00:30:35;101417.34;;;8.43;80.80
68075;BME280;54864;52.002;5.468;2023-02-22T00:31:36;101421.53;;;8.52;80.31
68075;BME280;54864;52.002;5.468;2023-02-22T00:32:38;101421.56;;;8.50;79.52
68075;BME280;54864;52.002;5.468;2023-02-22T00:33:40;101422.25;;;8.57;79.80
68075;BME280;54864;52.002;5.468;2023-02-22T00:34:41;101419.38;;;8.66;79.68
68075;BME280;54864;52.002;5.468;2023-02-22T00:35:44;101428.72;;;8.76;79.40
68075;BME280;54864;52.002;5.468;2023-02-22T00:36:46;101432.91;;;8.83;79.72
68075;BME280;54864;52.002;5.468;2023-02-22T00:37:47;101417.34;;;8.76;79.53
68075;BME280;54864;52.002;5.468;2023-02-22T00:38:49;101430.59;;;8.73;79.84
68075;BME280;54864;52.002;5.468;2023-02-22T00:39:50;101427.97;;;8.73;79.23
68075;BME280;54864;52.002;5.468;2023-02-22T00:40:52;101429.06;;;8.64;79.57
68075;BME280;54864;52.002;5.468;2023-02-22T00:41:53;101426.88;;;8.80;79.59
68075;BME280;54864;52.002;5.468;2023-02-22T00:42:55;101433.72;;;8.85;79.30
68075;BME280;54864;52.002;5.468;2023-02-22T00:43:56;101435.38;;;8.89;78.83
68075;BME280;54864;52.002;5.468;2023-02-22T00:44:57;101432.78;;;8.88;79.13
68075;BME280;54864;52.002;5.468;2023-02-22T00:46:00;101420.22;;;8.98;78.29
68075;BME280;54864;52.002;5.468;2023-02-22T00:47:01;101432.56;;;8.96;78.54
68075;BME280;54864;52.002;5.468;2023-02-22T00:48:05;101420.22;;;8.98;78.37
68075;BME280;54864;52.002;5.468;2023-02-22T00:49:08;101421.09;;;8.98;78.75
68075;BME280;54864;52.002;5.468;2023-02-22T00:50:08;101416.56;;;9.03;78.59
68075;BME280;54864;52.002;5.468;2023-02-22T00:51:10;101410.63;;;8.97;77.89
68075;BME280;54864;52.002;5.468;2023-02-22T00:52:11;101414.78;;;9.04;77.83
68075;BME280;54864;52.002;5.468;2023-02-22T00:53:13;101414.66;;;9.08;77.89
68075;BME280;54864;52.002;5.468;2023-02-22T00:54:14;101410.25;;;9.09;77.07
68075;BME280;54864;52.002;5.468;2023-02-22T00:55:21;101411.75;;;8.88;77.34
68075;BME280;54864;52.002;5.468;2023-02-22T00:56:22;101410.47;;;8.72;77.98
68075;BME280;54864;52.002;5.468;2023-02-22T00:57:24;101406.38;;;8.62;78.69
68075;BME280;54864;52.002;5.468;2023-02-22T00:58:24;101406.25;;;8.66;78.84
68075;BME280;54864;52.002;5.468;2023-02-22T00:59:26;101405.38;;;8.66;79.25
68075;BME280;54864;52.002;5.468;2023-02-22T01:00:29;101394.91;;;8.64;78.75
68075;BME280;54864;52.002;5.468;2023-02-22T01:01:32;101404.50;;;8.65;79.25
68075;BME280;54864;52.002;5.468;2023-02-22T01:02:33;101401.84;;;8.67;79.52
68075;BME280;54864;52.002;5.468;2023-02-22T01:03:34;101398.56;;;8.58;79.33
68075;BME280;54864;52.002;5.468;2023-02-22T01:04:40;101411.59;;;8.63;79.61
68075;BME280;54864;52.002;5.468;2023-02-22T01:05:41;101403.56;;;8.68;79.15
68075;BME280;54864;52.002;5.468;2023-02-22T01:06:43;101399.31;;;8.64;79.02
68075;BME280;54864;52.002;5.468;2023-02-22T01:07:44;101394.94;;;8.63;79.41
68075;BME280;54864;52.002;5.468;2023-02-22T01:08:46;101395.84;;;8.62;79.36
68075;BME280;54864;52.002;5.468;2023-02-22T01:09:49;101391.25;;;8.70;78.84
68075;BME280;54864;52.002;5.468;2023-02-22T01:10:49;101387.88;;;8.65;79.35
68075;BME280;54864;52.002;5.468;2023-02-22T01:11:52;101387.09;;;8.61;79.88
68075;BME280;54864;52.002;5.468;2023-02-22T01:12:55;101392.44;;;8.58;79.91
68075;BME280;54864;52.002;5.468;2023-02-22T01:13:57;101392.22;;;8.66;80.21
68075;BME280;54864;52.002;5.468;2023-02-22T01:14:59;101397.13;;;8.78;79.53
68075;BME280;54864;52.002;5.468;2023-02-22T01:16:00;101385.53;;;8.85;79.29
68075;BME280;54864;52.002;5.468;2023-02-22T01:17:04;101388.00;;;8.91;79.40
68075;BME280;54864;52.002;5.468;2023-02-22T01:18:05;101380.06;;;8.93;78.79
68075;BME280;54864;52.002;5.468;2023-02-22T01:19:07;101384.31;;;8.97;78.03
68075;BME280;54864;52.002;5.468;2023-02-22T01:20:09;101386.09;;;8.96;78.36
68075;BME280;54864;52.002;5.468;2023-02-22T01:21:12;101387.84;;;8.96;77.61
68075;BME280;54864;52.002;5.468;2023-02-22T01:22:13;101401.00;;;8.96;77.45
68075;BME280;54864;52.002;5.468;2023-02-22T01:23:15;101393.56;;;8.80;78.05
68075;BME280;54864;52.002;5.468;2023-02-22T01:24:17;101389.91;;;8.86;78.18
68075;BME280;54864;52.002;5.468;2023-02-22T01:25:21;101394.16;;;8.90;78.33
68075;BME280;54864;52.002;5.468;2023-02-22T01:26:22;101395.03;;;8.90;78.02
68075;BME280;54864;52.002;5.468;2023-02-22T01:27:23;101392.28;;;8.94;77.57
68075;BME280;54864;52.002;5.468;2023-02-22T01:28:24;101395.16;;;8.86;77.96
68075;BME280;54864;52.002;5.468;2023-02-22T01:29:26;101391.84;;;8.79;77.21
68075;BME280;54864;52.002;5.468;2023-02-22T01:30:29;101397.44;;;8.67;77.61
68075;BME280;54864;52.002;5.468;2023-02-22T01:31:32;101396.97;;;8.53;77.22
68075;BME280;54864;52.002;5.468;2023-02-22T01:32:34;101387.41;;;8.50;77.53
68075;BME280;54864;52.002;5.468;2023-02-22T01:33:36;101395.72;;;8.34;78.37
68075;BME280;54864;52.002;5.468;2023-02-22T01:34:38;101390.34;;;8.38;78.72
68075;BME280;54864;52.002;5.468;2023-02-22T01:35:41;101388.63;;;8.37;79.60
68075;BME280;54864;52.002;5.468;2023-02-22T01:36:42;101383.19;;;8.43;79.45
68075;BME280;54864;52.002;5.468;2023-02-22T01:37:44;101389.44;;;8.39;79.51
68075;BME280;54864;52.002;5.468;2023-02-22T01:38:45;101385.81;;;8.43;78.64
68075;BME280;54864;52.002;5.468;2023-02-22T01:39:47;101387.59;;;8.43;78.48
68075;BME280;54864;52.002;5.468;2023-02-22T01:40:49;101377.16;;;8.40;79.16
68075;BME280;54864;52.002;5.468;2023-02-22T01:41:51;101379.72;;;8.43;78.65
68075;BME280;54864;52.002;5.468;2023-02-22T01:42:55;101380.66;;;8.40;78.92
68075;BME280;54864;52.002;5.468;2023-02-22T01:43:57;101380.53;;;8.45;78.78
68075;BME280;54864;52.002;5.468;2023-02-22T01:46:35;101365.97;;;8.33;78.88
68075;BME280;54864;52.002;5.468;2023-02-22T01:47:37;101369.28;;;8.40;78.58
68075;BME280;54864;52.002;5.468;2023-02-22T01:48:41;101363.03;;;8.45;78.61
68075;BME280;54864;52.002;5.468;2023-02-22T01:49:47;101362.13;;;8.45;78.39
68075;BME280;54864;52.002;5.468;2023-02-22T01:50:53;101361.28;;;8.44;78.79
68075;BME280;54864;52.002;5.468;2023-02-22T01:51:58;101362.38;;;8.36;78.96
68075;BME280;54864;52.002;5.468;2023-02-22T01:53:02;101364.28;;;8.29;79.16
68075;BME280;54864;52.002;5.468;2023-02-22T01:54:06;101363.22;;;8.38;78.93
68075;BME280;54864;52.002;5.468;2023-02-22T01:55:10;101368.84;;;8.22;78.95
68075;BME280;54864;52.002;5.468;2023-02-22T01:56:11;101363.44;;;8.28;79.31
68075;BME280;54864;52.002;5.468;2023-02-22T01:57:17;101361.88;;;8.21;78.76
68075;BME280;54864;52.002;5.468;2023-02-22T01:58:20;101361.97;;;8.18;79.44
68075;BME280;54864;52.002;5.468;2023-02-22T01:59:23;101359.84;;;7.99;79.72
68075;BME280;54864;52.002;5.468;2023-02-22T02:00:24;101362.38;;;8.03;80.21
68075;BME280;54864;52.002;5.468;2023-02-22T02:01:28;101354.03;;;7.87;79.28
68075;BME280;54864;52.002;5.468;2023-02-22T02:02:29;101362.81;;;7.86;80.12
68075;BME280;54864;52.002;5.468;2023-02-22T02:03:36;101358.34;;;7.90;80.32
68075;BME280;54864;52.002;5.468;2023-02-22T02:04:38;101358.28;;;7.91;80.27
68075;BME280;54864;52.002;5.468;2023-02-22T02:05:42;101358.13;;;7.98;79.96
68075;BME280;54864;52.002;5.468;2023-02-22T02:06:44;101358.84;;;8.04;79.76
68075;BME280;54864;52.002;5.468;2023-02-22T02:07:46;101359.81;;;8.00;79.66
68075;BME280;54864;52.002;5.468;2023-02-22T02:08:53;101357.16;;;8.02;79.07
68075;BME280;54864;52.002;5.468;2023-02-22T02:09:59;101365.19;;;7.95;78.74
68075;BME280;54864;52.002;5.468;2023-02-22T02:11:02;101360.69;;;8.01;79.89
68075;BME280;54864;52.002;5.468;2023-02-22T02:12:07;101365.09;;;7.99;79.35
68075;BME280;54864;52.002;5.468;2023-02-22T02:13:09;101363.22;;;8.04;79.63
68075;BME280;54864;52.002;5.468;2023-02-22T02:14:11;101364.16;;;8.01;79.51
68075;BME280;54864;52.002;5.468;2023-02-22T02:15:19;101360.59;;;8.04;79.45
68075;BME280;54864;52.002;5.468;2023-02-22T02:16:23;101357.94;;;8.05;78.72
68075;BME280;54864;52.002;5.468;2023-02-22T02:17:26;101357.81;;;8.10;79.13
68075;BME280;54864;52.002;5.468;2023-02-22T02:18:27;101359.41;;;8.15;78.76
68075;BME280;54864;52.002;5.468;2023-02-22T02:19:42;101356.88;;;8.12;78.25
68075;BME280;54864;52.002;5.468;2023-02-22T02:21:02;101349.81;;;8.14;78.46
68075;BME280;54864;52.002;5.468;2023-02-22T02:25:49;101337.06;;;8.01;78.48
68075;BME280;54864;52.002;5.468;2023-02-22T02:27:15;101336.16;;;8.02;78.65
68075;BME280;54864;52.002;5.468;2023-02-22T02:28:55;101336.16;;;8.02;78.45
68075;BME280;54864;52.002;5.468;2023-02-22T02:30:27;101332.56;;;8.04;79.20
68075;BME280;54864;52.002;5.468;2023-02-22T02:33:17;101337.13;;;7.98;79.11
68075;BME280;54864;52.002;5.468;2023-02-22T02:34:25;101328.56;;;7.91;79.50
68075;BME280;54864;52.002;5.468;2023-02-22T02:35:43;101326.91;;;7.87;79.04
68075;BME280;54864;52.002;5.468;2023-02-22T02:36:57;101325.44;;;7.75;79.66
68075;BME280;54864;52.002;5.468;2023-02-22T02:38:08;101321.94;;;7.75;79.98
68075;BME280;54864;52.002;5.468;2023-02-22T02:39:17;101317.47;;;7.78;79.65
68075;BME280;54864;52.002;5.468;2023-02-22T02:40:24;101319.00;;;7.88;79.96
68075;BME280;54864;52.002;5.468;2023-02-22T02:41:34;101315.06;;;7.71;80.04
68075;BME280;54864;52.002;5.468;2023-02-22T02:42:39;101329.16;;;7.67;80.11
68075;BME280;54864;52.002;5.468;2023-02-22T02:43:46;101330.28;;;7.56;79.75
68075;BME280;54864;52.002;5.468;2023-02-22T02:44:54;101318.94;;;7.56;79.62
68075;BME280;54864;52.002;5.468;2023-02-22T02:46:00;101317.25;;;7.53;80.42
68075;BME280;54864;52.002;5.468;2023-02-22T02:47:06;101316.34;;;7.54;79.93
68075;BME280;54864;52.002;5.468;2023-02-22T02:48:13;101317.09;;;7.59;80.42
68075;BME280;54864;52.002;5.468;2023-02-22T02:49:18;101316.03;;;7.67;79.54
68075;BME280;54864;52.002;5.468;2023-02-22T02:50:25;101312.31;;;7.75;79.26
68075;BME280;54864;52.002;5.468;2023-02-22T02:51:29;101315.22;;;7.64;79.80
68075;BME280;54864;52.002;5.468;2023-02-22T02:52:33;101310.72;;;7.70;80.04
68075;BME280;54864;52.002;5.468;2023-02-22T02:53:37;101320.97;;;7.79;80.13
68075;BME280;54864;52.002;5.468;2023-02-22T02:54:40;101307.69;;;7.86;79.52
68075;BME280;54864;52.002;5.468;2023-02-22T02:55:41;101307.59;;;7.89;79.67
68075;BME280;54864;52.002;5.468;2023-02-22T02:56:44;101313.59;;;7.94;79.15
68075;BME280;54864;52.002;5.468;2023-02-22T02:57:45;101306.47;;;7.98;79.07
68075;BME280;54864;52.002;5.468;2023-02-22T02:58:49;101308.25;;;7.98;78.77
68075;BME280;54864;52.002;5.468;2023-02-22T02:59:50;101307.50;;;7.92;79.07
68075;BME280;54864;52.002;5.468;2023-02-22T03:00:54;101303.03;;;7.96;78.25
68075;BME280;54864;52.002;5.468;2023-02-22T03:02:08;101307.78;;;7.82;78.87
68075;BME280;54864;52.002;5.468;2023-02-22T03:03:44;101301.44;;;7.90;78.67
68075;BME280;54864;52.002;5.468;2023-02-22T03:04:56;101298.22;;;7.79;78.87
68075;BME280;54864;52.002;5.468;2023-02-22T03:06:26;101303.31;;;7.85;79.39
68075;BME280;54864;52.002;5.468;2023-02-22T03:07:38;101300.09;;;7.74;79.66
68075;BME280;54864;52.002;5.468;2023-02-22T03:08:48;101297.44;;;7.76;78.93
68075;BME280;54864;52.002;5.468;2023-02-22T03:10:02;101298.22;;;7.79;79.03
68075;BME280;54864;52.002;5.468;2023-02-22T03:11:09;101291.06;;;7.86;78.78
68075;BME280;54864;52.002;5.468;2023-02-22T03:12:22;101288.44;;;7.86;79.29
68075;BME280;54864;52.002;5.468;2023-02-22T03:13:31;101299.19;;;7.75;78.67
68075;BME280;54864;52.002;5.468;2023-02-22T03:14:39;101301.72;;;7.78;79.13
68075;BME280;54864;52.002;5.468;2023-02-22T03:15:49;101285.19;;;7.75;79.50
68075;BME280;54864;52.002;5.468;2023-02-22T03:16:57;101293.97;;;7.74;79.52
68075;BME280;54864;52.002;5.468;2023-02-22T03:18:06;101289.41;;;7.82;79.69
68075;BME280;54864;52.002;5.468;2023-02-22T03:19:10;101292.97;;;7.79;79.30
68075;BME280;54864;52.002;5.468;2023-02-22T03:20:19;101290.41;;;7.76;79.60
68075;BME280;54864;52.002;5.468;2023-02-22T03:21:25;101285.00;;;7.84;79.57
68075;BME280;54864;52.002;5.468;2023-02-22T03:22:35;101283.41;;;7.77;79.29
68075;BME280;54864;52.002;5.468;2023-02-22T03:23:44;101284.22;;;7.80;79.86
68075;BME280;54864;52.002;5.468;2023-02-22T03:24:50;101285.13;;;7.78;79.21
68075;BME280;54864;52.002;5.468;2023-02-22T03:25:58;101279.00;;;7.77;79.34
68075;BME280;54864;52.002;5.468;2023-02-22T03:27:05;101274.78;;;7.72;79.23
68075;BME280;54864;52.002;5.468;2023-02-22T03:28:10;101279.09;;;7.74;79.87
68075;BME280;54864;52.002;5.468;2023-02-22T03:29:15;101280.06;;;7.70;79.35
68075;BME280;54864;52.002;5.468;2023-02-22T03:30:22;101277.56;;;7.66;79.55
68075;BME280;54864;52.002;5.468;2023-02-22T03:31:28;101277.69;;;7.61;79.30
68075;BME280;54864;52.002;5.468;2023-02-22T03:32:35;101274.94;;;7.66;79.04
68075;BME280;54864;52.002;5.468;2023-02-22T03:33:41;101275.94;;;7.61;79.76
68075;BME280;54864;52.002;5.468;2023-02-22T03:34:48;101275.09;;;7.59;79.42
68075;BME280;54864;52.002;5.468;2023-02-22T03:35:55;101280.34;;;7.59;79.68
68075;BME280;54864;52.002;5.468;2023-02-22T03:36:59;101273.34;;;7.60;79.93
68075;BME280;54864;52.002;5.468;2023-02-22T03:38:05;101271.06;;;7.46;80.45
68075;BME280;54864;52.002;5.468;2023-02-22T03:39:10;101272.06;;;7.42;80.54
68075;BME280;54864;52.002;5.468;2023-02-22T03:40:19;101272.97;;;7.41;81.27
68075;BME280;54864;52.002;5.468;2023-02-22T03:41:26;101275.47;;;7.46;80.92
68075;BME280;54864;52.002;5.468;2023-02-22T03:42:31;101267.56;;;7.47;81.11
68075;BME280;54864;52.002;5.468;2023-02-22T03:43:37;101276.03;;;7.57;81.45
68075;BME280;54864;52.002;5.468;2023-02-22T03:44:40;101267.19;;;7.61;80.77
68075;BME280;54864;52.002;5.468;2023-02-22T03:45:44;101272.47;;;7.59;80.59
68075;BME280;54864;52.002;5.468;2023-02-22T03:46:47;101261.91;;;7.62;80.67
68075;BME280;54864;52.002;5.468;2023-02-22T03:47:56;101274.00;;;7.68;80.90
68075;BME280;54864;52.002;5.468;2023-02-22T03:49:04;101263.78;;;7.57;80.25
68075;BME280;54864;52.002;5.468;2023-02-22T03:50:11;101269.97;;;7.55;80.33
68075;BME280;54864;52.002;5.468;2023-02-22T03:51:16;101272.56;;;7.56;80.43
68075;BME280;54864;52.002;5.468;2023-02-22T03:52:17;101263.78;;;7.57;80.69
68075;BME280;54864;52.002;5.468;2023-02-22T03:53:19;101261.13;;;7.59;80.71
68075;BME280;54864;52.002;5.468;2023-02-22T03:54:22;101274.53;;;7.48;81.20
68075;BME280;54864;52.002;5.468;2023-02-22T03:55:24;101257.91;;;7.48;81.04
68075;BME280;54864;52.002;5.468;2023-02-22T03:56:28;101266.41;;;7.57;80.98
68075;BME280;54864;52.002;5.468;2023-02-22T03:57:36;101270.56;;;7.66;81.00
68075;BME280;54864;52.002;5.468;2023-02-22T03:58:39;101254.63;;;7.74;80.72
68075;BME280;54864;52.002;5.468;2023-02-22T03:59:45;101258.06;;;7.76;80.88
68075;BME280;54864;52.002;5.468;2023-02-22T04:00:46;101258.91;;;7.76;80.30
68075;BME280;54864;52.002;5.468;2023-02-22T04:01:52;101262.38;;;7.78;80.70
68075;BME280;54864;52.002;5.468;2023-02-22T04:02:53;101254.44;;;7.80;80.65
68075;BME280;54864;52.002;5.468;2023-02-22T04:03:55;101260.56;;;7.82;80.49
68075;BME280;54864;52.002;5.468;2023-02-22T04:04:57;101257.63;;;7.92;80.05
68075;BME280;54864;52.002;5.468;2023-02-22T04:05:59;101262.88;;;7.92;79.89
68075;BME280;54864;52.002;5.468;2023-02-22T04:07:00;101254.16;;;7.92;80.49
68075;BME280;54864;52.002;5.468;2023-02-22T04:08:02;101248.72;;;7.98;79.38
68075;BME280;54864;52.002;5.468;2023-02-22T04:09:03;101246.88;;;8.02;79.27
68075;BME280;54864;52.002;5.468;2023-02-22T04:10:06;101249.47;;;8.03;79.73
68075;BME280;54864;52.002;5.468;2023-02-22T04:11:07;101256.84;;;7.89;80.25
68075;BME280;54864;52.002;5.468;2023-02-22T04:12:09;101249.06;;;7.86;79.96
68075;BME280;54864;52.002;5.468;2023-02-22T04:13:10;101252.59;;;7.85;79.64
68075;BME280;54864;52.002;5.468;2023-02-22T04:14:14;101250.44;;;7.67;80.54
68075;BME280;54864;52.002;5.468;2023-02-22T04:15:17;101246.16;;;7.62;80.90
68075;BME280;54864;52.002;5.468;2023-02-22T04:16:19;101247.72;;;7.70;81.29
68075;BME280;54864;52.002;5.468;2023-02-22T04:17:20;101250.19;;;7.76;80.70
68075;BME280;54864;52.002;5.468;2023-02-22T04:18:21;101239.66;;;7.77;80.68
68075;BME280;54864;52.002;5.468;2023-02-22T04:19:22;101238.09;;;7.70;81.17
68075;BME280;54864;52.002;5.468;2023-02-22T04:20:25;101247.03;;;7.63;81.61
68075;BME280;54864;52.002;5.468;2023-02-22T04:21:26;101239.13;;;7.64;81.41
68075;BME280;54864;52.002;5.468;2023-02-22T04:22:28;101245.22;;;7.65;81.71
68075;BME280;54864;52.002;5.468;2023-02-22T04:23:28;101238.38;;;7.59;81.04
68075;BME280;54864;52.002;5.468;2023-02-22T04:24:30;101230.53;;;7.58;80.99
68075;BME280;54864;52.002;5.468;2023-02-22T04:25:31;101233.22;;;7.56;81.18
68075;BME280;54864;52.002;5.468;2023-02-22T04:26:33;101239.28;;;7.58;80.76
68075;BME280;54864;52.002;5.468;2023-02-22T04:27:33;101231.41;;;7.58;81.61
68075;BME280;54864;52.002;5.468;2023-02-22T04:28:35;101224.81;;;7.44;81.65
68075;BME280;54864;52.002;5.468;2023-02-22T04:29:36;101232.50;;;7.50;81.56
68075;BME280;54864;52.002;5.468;2023-02-22T04:30:37;101227.22;;;7.51;81.39
68075;BME280;54864;52.002;5.468;2023-02-22T04:31:38;101227.19;;;7.53;81.84
68075;BME280;54864;52.002;5.468;2023-02-22T04:32:40;101235.06;;;7.53;81.71
68075;BME280;54864;52.002;5.468;2023-02-22T04:33:41;101231.53;;;7.54;82.17
68075;BME280;54864;52.002;5.468;2023-02-22T04:34:42;101227.03;;;7.59;81.61
68075;BME280;54864;52.002;5.468;2023-02-22T04:35:45;101225.13;;;7.64;81.38
68075;BME280;54864;52.002;5.468;2023-02-22T04:36:46;101228.97;;;7.51;82.01
68075;BME280;54864;52.002;5.468;2023-02-22T04:37:48;101224.59;;;7.51;82.20
68075;BME280;54864;52.002;5.468;2023-02-22T04:38:49;101218.66;;;7.45;81.82
68075;BME280;54864;52.002;5.468;2023-02-22T04:39:50;101221.41;;;7.40;81.84
68075;BME280;54864;52.002;5.468;2023-02-22T04:40:52;101219.56;;;7.44;82.39
68075;BME280;54864;52.002;5.468;2023-02-22T04:41:53;101224.59;;;7.51;81.90
68075;BME280;54864;52.002;5.468;2023-02-22T04:42:54;101219.50;;;7.45;82.43
68075;BME280;54864;52.002;5.468;2023-02-22T04:43:56;101207.53;;;7.35;82.63
68075;BME280;54864;52.002;5.468;2023-02-22T04:44:57;101219.69;;;7.39;81.89
68075;BME280;54864;52.002;5.468;2023-02-22T04:45:58;101220.63;;;7.37;82.65
68075;BME280;54864;52.002;5.468;2023-02-22T04:46:59;101213.38;;;7.46;82.72
68075;BME280;54864;52.002;5.468;2023-02-22T04:48:01;101211.53;;;7.50;82.84
68075;BME280;54864;52.002;5.468;2023-02-22T04:49:02;101209.59;;;7.56;82.40
68075;BME280;54864;52.002;5.468;2023-02-22T04:50:05;101210.50;;;7.55;82.23
68075;BME280;54864;52.002;5.468;2023-02-22T04:51:08;101199.03;;;7.59;82.49
68075;BME280;54864;52.002;5.468;2023-02-22T04:52:09;101203.38;;;7.60;82.32
68075;BME280;54864;52.002;5.468;2023-02-22T04:53:10;101198.19;;;7.57;82.17
68075;BME280;54864;52.002;5.468;2023-02-22T04:54:12;101201.63;;;7.59;81.90
68075;BME280;54864;52.002;5.468;2023-02-22T04:55:13;101199.84;;;7.61;82.17
68075;BME280;54864;52.002;5.468;2023-02-22T04:56:16;101197.09;;;7.66;81.74
68075;BME280;54864;52.002;5.468;2023-02-22T04:57:17;101196.22;;;7.66;81.77
68075;BME280;54864;52.002;5.468;2023-02-22T04:58:18;101189.31;;;7.63;82.05
68075;BME280;54864;52.002;5.468;2023-02-22T04:59:19;101191.91;;;7.63;82.36
68075;BME280;54864;52.002;5.468;2023-02-22T05:00:21;101189.22;;;7.66;81.97
68075;BME280;54864;52.002;5.468;2023-02-22T05:01:22;101193.91;;;7.55;82.72
68075;BME280;54864;52.002;5.468;2023-02-22T05:02:24;101186.75;;;7.60;82.31
68075;BME280;54864;52.002;5.468;2023-02-22T05:03:25;101191.41;;;7.50;82.40
68075;BME280;54864;52.002;5.468;2023-02-22T05:04:27;101188.19;;;7.39;83.03
68075;BME280;54864;52.002;5.468;2023-02-22T05:05:27;101185.75;;;7.33;83.64
68075;BME280;54864;52.002;5.468;2023-02-22T05:06:30;101187.38;;;7.37;84.02
68075;BME280;54864;52.002;5.468;2023-02-22T05:07:31;101175.81;;;7.44;83.58
68075;BME280;54864;52.002;5.468;2023-02-22T05:08:33;101180.03;;;7.50;83.31
68075;BME280;54864;52.002;5.468;2023-02-22T05:09:34;101173.00;;;7.52;83.44
68075;BME280;54864;52.002;5.468;2023-02-22T05:10:36;101172.28;;;7.45;83.59
68075;BME280;54864;52.002;5.468;2023-02-22T05:11:37;101172.66;;;7.31;83.97
68075;BME280;54864;52.002;5.468;2023-02-22T05:12:38;101173.06;;;7.16;85.12
68075;BME280;54864;52.002;5.468;2023-02-22T05:13:40;101173.19;;;7.10;85.57
68075;BME280;54864;52.002;5.468;2023-02-22T05:14:41;101170.44;;;7.15;85.51
68075;BME280;54864;52.002;5.468;2023-02-22T05:15:43;101173.13;;;7.13;85.72
68075;BME280;54864;52.002;5.468;2023-02-22T05:16:44;101169.50;;;7.19;86.02
68075;BME280;54864;52.002;5.468;2023-02-22T05:17:48;101175.38;;;7.28;85.54
68075;BME280;54864;52.002;5.468;2023-02-22T05:18:49;101167.41;;;7.31;85.41
68075;BME280;54864;52.002;5.468;2023-02-22T05:19:50;101170.00;;;7.33;85.22
68075;BME280;54864;52.002;5.468;2023-02-22T05:20:51;101179.59;;;7.34;85.38
68075;BME280;54864;52.002;5.468;2023-02-22T05:21:54;101177.00;;;7.32;84.94
68075;BME280;54864;52.002;5.468;2023-02-22T05:22:57;101171.81;;;7.31;84.92
68075;BME280;54864;52.002;5.468;2023-02-22T05:23:59;101174.19;;;7.40;84.72
68075;BME280;54864;52.002;5.468;2023-02-22T05:24:59;101180.38;;;7.38;85.29
68075;BME280;54864;52.002;5.468;2023-02-22T05:26:03;101179.63;;;7.32;84.70
68075;BME280;54864;52.002;5.468;2023-02-22T05:27:05;101175.13;;;7.38;85.24
68075;BME280;54864;52.002;5.468;2023-02-22T05:28:10;101177.66;;;7.41;85.45
68075;BME280;54864;52.002;5.468;2023-02-22T05:29:12;101177.22;;;7.25;85.13
68075;BME280;54864;52.002;5.468;2023-02-22T05:30:14;101175.72;;;7.13;86.29
68075;BME280;54864;52.002;5.468;2023-02-22T05:31:15;101173.13;;;7.13;86.03
68075;BME280;54864;52.002;5.468;2023-02-22T05:32:17;101174.13;;;7.08;86.24
68075;BME280;54864;52.002;5.468;2023-02-22T05:33:18;101181.22;;;7.04;86.72
68075;BME280;54864;52.002;5.468;2023-02-22T05:34:20;101170.53;;;7.12;86.58
68075;BME280;54864;52.002;5.468;2023-02-22T05:35:22;101169.72;;;7.10;86.33
68075;BME280;54864;52.002;5.468;2023-02-22T05:36:23;101173.38;;;7.03;86.80
68075;BME280;54864;52.002;5.468;2023-02-22T05:37:26;101171.50;;;7.08;86.75
68075;BME280;54864;52.002;5.468;2023-02-22T05:38:27;101171.47;;;7.09;86.57
68075;BME280;54864;52.002;5.468;2023-02-22T05:39:28;101175.88;;;7.07;86.72
68075;BME280;54864;52.002;5.468;2023-02-22T05:40:30;101174.84;;;7.14;87.11
68075;BME280;54864;52.002;5.468;2023-02-22T05:41:31;101171.25;;;7.18;86.95
68075;BME280;54864;52.002;5.468;2023-02-22T05:42:33;101177.41;;;7.17;86.16
68075;BME280;54864;52.002;5.468;2023-02-22T05:43:34;101169.41;;;7.22;86.42
68075;BME280;54864;52.002;5.468;2023-02-22T05:44:36;101166.63;;;7.28;86.46